createdAt,value
2018-08-19T00:00:17.854Z,10.18
2018-08-19T00:02:45.218Z,9.25
2018-08-19T00:05:15.366Z,9.30
2018-08-19T00:07:42.672Z,9.25
2018-08-19T00:10:10.022Z,10.40
2018-08-19T00:12:38.504Z,10.43
2018-08-19T00:15:06.010Z,10.18
2018-08-19T00:17:33.464Z,10.50
2018-08-19T00:20:00.816Z,10.30
2018-08-19T00:22:28.189Z,10.53
2018-08-19T00:24:55.567Z,11.30
2018-08-19T00:27:22.876Z,11.57
2018-08-19T00:29:50.238Z,12.05
2018-08-19T00:32:17.561Z,11.50
2018-08-19T00:34:45.767Z,11.00
2018-08-19T00:37:13.115Z,11.12
2018-08-19T00:39:40.391Z,11.00
2018-08-19T00:42:07.776Z,11.65
2018-08-19T00:44:35.075Z,12.25
2018-08-19T00:47:02.484Z,11.25
2018-08-19T00:49:29.855Z,12.40
2018-08-19T00:51:59.210Z,11.10
2018-08-19T00:54:27.190Z,12.03
2018-08-19T00:56:56.262Z,13.10
2018-08-19T00:59:24.068Z,12.85
2018-08-19T01:01:51.470Z,14.78
2018-08-19T01:04:18.766Z,12.05
2018-08-19T01:06:51.368Z,13.93
2018-08-19T01:09:18.669Z,14.33
2018-08-19T01:11:46.079Z,14.85
2018-08-19T01:14:14.133Z,14.18
2018-08-19T01:16:41.601Z,14.60
2018-08-19T01:19:09.288Z,13.05
2018-08-19T01:21:36.611Z,13.55
2018-08-19T01:24:07.777Z,14.43
2018-08-19T01:26:36.080Z,12.93
2018-08-19T01:29:03.892Z,13.05
2018-08-19T01:31:31.196Z,14.87
2018-08-19T01:33:58.560Z,13.20
2018-08-19T01:36:25.898Z,15.20
2018-08-19T01:38:53.210Z,15.58
2018-08-19T01:41:20.540Z,16.07
2018-08-19T01:43:54.615Z,14.70
2018-08-19T01:46:21.926Z,15.98
2018-08-19T01:48:49.221Z,15.90
2018-08-19T01:51:16.540Z,14.45
2018-08-19T01:53:43.832Z,15.10
2018-08-19T01:56:11.488Z,14.47
2018-08-19T01:58:43.132Z,14.78
2018-08-19T02:01:10.682Z,15.95
2018-08-19T02:03:37.971Z,15.75
2018-08-19T02:06:05.332Z,17.12
2018-08-19T02:08:32.623Z,15.25
2018-08-19T02:10:59.923Z,15.35
2018-08-19T02:13:27.227Z,15.08
2018-08-19T02:15:54.532Z,16.32
2018-08-19T02:18:21.845Z,16.12
2018-08-19T02:20:49.151Z,15.25
2018-08-19T02:23:16.428Z,16.27
2018-08-19T02:25:44.983Z,16.73
2018-08-19T02:28:13.338Z,16.52
2018-08-19T02:30:49.522Z,15.28
2018-08-19T02:33:17.458Z,16.05
2018-08-19T02:35:45.085Z,17.32
2018-08-19T02:38:12.450Z,15.90
2018-08-19T02:40:39.756Z,16.48
2018-08-19T02:43:08.278Z,15.15
2018-08-19T02:45:35.581Z,17.52
2018-08-19T02:48:02.908Z,17.87
2018-08-19T02:50:30.493Z,17.25
2018-08-19T02:52:57.741Z,16.37
2018-08-19T02:55:25.106Z,18.95
2018-08-19T02:57:56.684Z,18.52
2018-08-19T03:00:23.970Z,17.27
2018-08-19T03:02:51.278Z,18.55
2018-08-19T03:05:18.580Z,19.87
2018-08-19T03:07:45.884Z,17.07
2018-08-19T03:10:15.273Z,18.35
2018-08-19T03:12:43.047Z,19.20
2018-08-19T03:15:11.276Z,17.82
2018-08-19T03:17:38.875Z,19.55
2018-08-19T03:20:07.176Z,20.45
2018-08-19T03:22:34.488Z,17.32
2018-08-19T03:25:02.381Z,19.02
2018-08-19T03:27:29.785Z,20.32
2018-08-19T03:30:05.444Z,20.85
2018-08-19T03:32:32.744Z,20.08
2018-08-19T03:35:05.911Z,19.12
2018-08-19T03:37:33.465Z,19.50
2018-08-19T03:40:00.751Z,18.55
2018-08-19T03:42:28.007Z,19.57
2018-08-19T03:44:58.509Z,18.67
2018-08-19T03:47:25.861Z,20.00
2018-08-19T03:49:53.214Z,19.40
2018-08-19T03:52:20.825Z,17.20
2018-08-19T03:54:48.227Z,17.50
2018-08-19T03:57:18.990Z,21.05
2018-08-19T03:59:46.421Z,19.52
2018-08-19T04:02:13.725Z,20.90
2018-08-19T04:04:41.020Z,18.23
2018-08-19T04:07:08.399Z,19.87
2018-08-19T04:09:35.690Z,19.87
2018-08-19T04:12:08.923Z,18.27
2018-08-19T04:14:36.250Z,20.27
2018-08-19T04:17:03.609Z,19.95
2018-08-19T04:19:31.111Z,20.35
2018-08-19T04:21:59.118Z,19.27
2018-08-19T04:24:26.640Z,20.32
2018-08-19T04:26:53.972Z,21.57
2018-08-19T04:29:25.097Z,20.05
2018-08-19T04:31:52.448Z,19.73
2018-08-19T04:34:19.811Z,18.07
2018-08-19T04:36:47.112Z,19.25
2018-08-19T04:39:14.598Z,18.85
2018-08-19T04:41:41.915Z,20.90
2018-08-19T04:44:09.229Z,19.87
2018-08-19T04:46:36.526Z,19.67
2018-08-19T04:49:03.935Z,19.10
2018-08-19T04:51:31.242Z,19.23
2018-08-19T04:53:59.166Z,19.90
2018-08-19T04:56:26.540Z,18.15
2018-08-19T04:58:53.818Z,17.30
2018-08-19T05:01:21.134Z,19.15
2018-08-19T05:03:48.441Z,17.60
2018-08-19T05:06:15.742Z,17.57
2018-08-19T05:08:43.067Z,18.80
2018-08-19T05:11:10.387Z,15.95
2018-08-19T05:13:37.711Z,16.20
2018-08-19T05:16:05.264Z,16.65
2018-08-19T05:18:32.565Z,13.85
2018-08-19T05:21:16.646Z,15.65
2018-08-19T05:23:43.994Z,15.43
2018-08-19T05:26:12.267Z,15.32
2018-08-19T05:28:39.886Z,14.30
2018-08-19T05:31:07.275Z,14.85
2018-08-19T05:33:34.575Z,15.65
2018-08-19T05:36:01.874Z,13.08
2018-08-19T05:38:29.895Z,14.07
2018-08-19T05:41:01.160Z,12.47
2018-08-19T05:43:29.171Z,11.38
2018-08-19T05:45:57.646Z,11.57
2018-08-19T05:48:25.310Z,11.75
2018-08-19T05:50:52.914Z,10.88
2018-08-19T05:53:20.729Z,11.97
2018-08-19T05:55:48.062Z,10.75
2018-08-19T05:58:15.401Z,10.55
2018-08-19T06:00:43.548Z,10.88
2018-08-19T06:03:10.853Z,10.90
2018-08-19T06:05:38.254Z,11.53
2018-08-19T06:08:14.347Z,11.70
2018-08-19T06:10:41.804Z,10.20
2018-08-19T06:13:09.928Z,10.45
2018-08-19T06:15:37.322Z,10.53
2018-08-19T06:18:04.786Z,10.40
2018-08-19T06:20:32.843Z,9.33
2018-08-19T06:23:00.272Z,9.45
2018-08-19T06:25:27.659Z,9.83
2018-08-19T06:27:56.702Z,10.03
2018-08-19T06:30:24.033Z,8.50
2018-08-19T06:32:51.307Z,8.60
2018-08-19T06:35:18.706Z,8.83
2018-08-19T06:37:46.027Z,8.80
2018-08-19T06:40:15.150Z,9.00
2018-08-19T06:42:42.520Z,7.30
2018-08-19T06:45:10.405Z,7.40
2018-08-19T06:47:37.750Z,7.70
2018-08-19T06:50:10.796Z,9.00
2018-08-19T06:52:38.087Z,8.33
2018-08-19T06:55:05.462Z,7.50
2018-08-19T06:57:32.782Z,7.17
2018-08-19T07:00:00.090Z,6.90
2018-08-19T07:02:27.379Z,6.47
2018-08-19T07:04:54.702Z,6.00
2018-08-19T07:07:22.008Z,6.47
2018-08-19T07:09:49.324Z,6.43
2018-08-19T07:12:18.992Z,7.00
2018-08-19T07:14:46.839Z,6.20
2018-08-19T07:17:14.345Z,6.10
2018-08-19T07:19:41.661Z,6.57
2018-08-19T07:22:09.654Z,6.00
2018-08-19T07:24:38.131Z,6.93
2018-08-19T07:27:07.123Z,6.60
2018-08-19T07:29:34.459Z,6.37
2018-08-19T07:32:01.715Z,7.80
2018-08-19T07:34:29.034Z,6.67
2018-08-19T07:36:57.525Z,7.00
2018-08-19T07:39:25.243Z,6.60
2018-08-19T07:41:52.597Z,5.87
2018-08-19T07:44:19.887Z,7.07
2018-08-19T07:46:47.280Z,6.37
2018-08-19T07:49:14.614Z,6.20
2018-08-19T07:51:41.971Z,6.40
2018-08-19T07:54:09.272Z,7.17
2018-08-19T07:56:37.049Z,6.33
2018-08-19T07:59:07.794Z,7.60
2018-08-19T08:01:36.122Z,7.27
2018-08-19T08:04:03.885Z,6.13
2018-08-19T08:06:32.487Z,6.40
2018-08-19T08:09:01.034Z,6.27
2018-08-19T08:11:28.724Z,6.57
2018-08-19T08:13:56.170Z,7.30
2018-08-19T08:16:23.389Z,6.80
2018-08-19T08:18:50.752Z,7.03
2018-08-19T08:21:18.097Z,6.77
2018-08-19T08:23:45.337Z,6.77
2018-08-19T08:26:12.646Z,7.40
2018-08-19T08:28:40.219Z,5.97
2018-08-19T08:31:09.017Z,7.27
2018-08-19T08:33:36.600Z,6.40
2018-08-19T08:36:05.621Z,6.20
2018-08-19T08:38:33.007Z,7.00
2018-08-19T08:41:00.323Z,6.47
2018-08-19T08:43:27.626Z,6.60
2018-08-19T08:45:55.451Z,6.13
2018-08-19T08:48:22.841Z,6.33
2018-08-19T08:50:50.144Z,5.40
2018-08-19T08:53:17.462Z,5.57
2018-08-19T08:55:44.747Z,5.83
2018-08-19T08:58:12.059Z,6.30
2018-08-19T09:00:39.459Z,5.67
2018-08-19T09:03:06.820Z,5.20
2018-08-19T09:05:34.166Z,6.50
2018-08-19T09:08:01.558Z,5.53
2018-08-19T09:10:28.963Z,5.30
2018-08-19T09:12:56.474Z,6.60
2018-08-19T09:15:23.826Z,5.90
2018-08-19T09:17:51.231Z,6.30
2018-08-19T09:20:18.542Z,6.80
2018-08-19T09:22:46.726Z,6.83
2018-08-19T09:25:14.062Z,6.83
2018-08-19T09:27:42.054Z,6.80
2018-08-19T09:30:10.724Z,7.37
2018-08-19T09:32:47.929Z,5.77
2018-08-19T09:35:15.225Z,6.37
2018-08-19T09:37:42.526Z,5.80
2018-08-19T09:40:09.829Z,5.97
2018-08-19T09:42:37.140Z,6.30
2018-08-19T09:45:04.483Z,7.20
2018-08-19T09:47:31.959Z,6.10
2018-08-19T09:49:59.203Z,5.60
2018-08-19T09:52:26.482Z,6.00
2018-08-19T09:54:53.791Z,6.67
2018-08-19T09:57:21.117Z,6.30
2018-08-19T09:59:48.982Z,6.80
2018-08-19T10:02:16.282Z,6.30
2018-08-19T10:04:43.590Z,5.87
2018-08-19T10:07:12.953Z,5.57
2018-08-19T10:09:40.337Z,5.97
2018-08-19T10:12:07.962Z,5.50
2018-08-19T10:14:35.339Z,6.37
2018-08-19T10:17:02.660Z,6.97
2018-08-19T10:19:30.777Z,5.50
2018-08-19T10:21:58.108Z,6.20
2018-08-19T10:24:30.219Z,6.33
2018-08-19T10:26:58.175Z,5.20
2018-08-19T10:29:25.587Z,5.20
2018-08-19T10:31:54.708Z,5.53
2018-08-19T10:34:27.704Z,4.93
2018-08-19T10:36:55.528Z,6.10
2018-08-19T10:39:22.875Z,6.30
2018-08-19T10:41:50.328Z,5.07
2018-08-19T10:44:17.635Z,6.40
2018-08-19T10:46:44.947Z,5.30
2018-08-19T10:49:12.253Z,6.07
2018-08-19T10:51:43.350Z,6.13
2018-08-19T10:54:10.656Z,4.43
2018-08-19T10:56:37.950Z,5.83
2018-08-19T10:59:05.687Z,6.30
2018-08-19T11:01:33.072Z,6.17
2018-08-19T11:04:00.450Z,5.80
2018-08-19T11:06:27.795Z,5.80
2018-08-19T11:08:56.488Z,5.50
2018-08-19T11:11:24.255Z,5.63
2018-08-19T11:13:51.601Z,5.50
2018-08-19T11:16:18.909Z,5.80
2018-08-19T11:18:47.430Z,5.80
2018-08-19T11:21:23.504Z,5.90
2018-08-19T11:23:50.795Z,5.60
2018-08-19T11:26:18.114Z,5.57
2018-08-19T11:28:50.226Z,6.30
2018-08-19T11:31:23.528Z,5.63
2018-08-19T11:33:51.582Z,5.43
2018-08-19T11:36:18.930Z,5.10
2018-08-19T11:38:48.903Z,6.60
2018-08-19T11:41:16.403Z,5.63
2018-08-19T11:43:44.991Z,5.37
2018-08-19T11:46:12.514Z,5.37
2018-08-19T11:48:40.632Z,5.10
2018-08-19T11:51:08.049Z,5.73
2018-08-19T11:53:35.648Z,5.80
2018-08-19T11:56:03.060Z,6.40
2018-08-19T11:58:36.358Z,5.87
2018-08-19T12:01:05.094Z,5.13
2018-08-19T12:04:04.638Z,5.07
2018-08-19T12:06:33.072Z,6.67
2018-08-19T12:09:01.699Z,5.50
2018-08-19T12:11:30.192Z,5.80
2018-08-19T12:13:57.689Z,4.97
2018-08-19T12:16:26.238Z,6.20
2018-08-19T12:18:53.658Z,5.63
2018-08-19T12:21:21.985Z,5.83
2018-08-19T12:23:50.102Z,6.13
2018-08-19T12:26:17.522Z,5.47
2018-08-19T12:28:44.833Z,5.50
2018-08-19T12:31:13.966Z,5.47
2018-08-19T12:33:41.321Z,6.53
2018-08-19T12:36:08.684Z,6.60
2018-08-19T12:38:35.995Z,6.60
2018-08-19T12:41:03.428Z,5.00
2018-08-19T12:43:30.795Z,5.70
2018-08-19T12:45:58.723Z,5.93
2018-08-19T12:48:26.116Z,6.27
2018-08-19T12:50:58.733Z,6.60
2018-08-19T12:53:26.066Z,7.00
2018-08-19T12:55:53.471Z,7.20
2018-08-19T12:58:20.727Z,6.30
2018-08-19T13:00:48.030Z,6.10
2018-08-19T13:03:15.290Z,6.07
2018-08-19T13:05:52.576Z,6.70
2018-08-19T13:08:19.830Z,7.00
2018-08-19T13:10:48.990Z,6.80
2018-08-19T13:13:17.344Z,6.60
2018-08-19T13:15:44.612Z,7.50
2018-08-19T13:18:12.223Z,6.93
2018-08-19T13:20:39.513Z,5.70
2018-08-19T13:23:06.888Z,7.30
2018-08-19T13:25:34.434Z,6.23
2018-08-19T13:28:01.779Z,6.53
2018-08-19T13:30:29.146Z,6.90
2018-08-19T13:32:56.499Z,5.60
2018-08-19T13:35:23.856Z,6.17
2018-08-19T13:37:51.523Z,7.00
2018-08-19T13:40:18.813Z,6.10
2018-08-19T13:42:46.167Z,6.37
2018-08-19T13:45:18.652Z,6.23
2018-08-19T13:47:47.189Z,6.33
2018-08-19T13:50:14.614Z,6.07
2018-08-19T13:52:42.505Z,7.00
2018-08-19T13:55:13.771Z,7.10
2018-08-19T13:57:41.133Z,7.37
2018-08-19T14:00:09.539Z,6.17
2018-08-19T14:02:36.830Z,6.20
2018-08-19T14:05:04.347Z,7.03
2018-08-19T14:07:31.638Z,6.77
2018-08-19T14:09:58.940Z,6.70
2018-08-19T14:12:26.241Z,6.63
2018-08-19T14:14:53.539Z,7.23
2018-08-19T14:17:20.868Z,6.97
2018-08-19T14:19:48.159Z,6.50
2018-08-19T14:22:15.452Z,6.40
2018-08-19T14:24:42.783Z,6.60
2018-08-19T14:27:10.069Z,6.70
2018-08-19T14:29:37.375Z,7.50
2018-08-19T14:32:04.782Z,7.20
2018-08-19T14:34:32.034Z,6.97
2018-08-19T14:36:59.432Z,7.70
2018-08-19T14:39:26.684Z,7.40
2018-08-19T14:41:54.013Z,7.80
2018-08-19T14:44:21.294Z,7.20
2018-08-19T14:46:50.240Z,6.50
2018-08-19T14:49:17.547Z,7.17
2018-08-19T14:51:53.622Z,7.03
2018-08-19T14:54:21.052Z,6.03
2018-08-19T14:56:48.412Z,6.73
2018-08-19T14:59:16.006Z,6.40
2018-08-19T15:01:43.822Z,7.50
2018-08-19T15:04:12.043Z,6.63
2018-08-19T15:06:39.655Z,7.37
2018-08-19T15:09:07.006Z,6.90
2018-08-19T15:11:34.354Z,6.60
2018-08-19T15:14:06.730Z,6.30
2018-08-19T15:16:34.756Z,5.90
2018-08-19T15:19:02.102Z,5.97
2018-08-19T15:21:29.374Z,6.70
2018-08-19T15:23:56.697Z,6.40
2018-08-19T15:26:23.970Z,6.13
2018-08-19T15:28:51.288Z,5.37
2018-08-19T15:31:24.077Z,5.60
2018-08-19T15:33:51.468Z,6.00
2018-08-19T15:36:18.790Z,5.37
2018-08-19T15:38:46.099Z,6.00
2018-08-19T15:41:13.602Z,6.07
2018-08-19T15:43:40.886Z,5.77
2018-08-19T15:46:08.200Z,5.37
2018-08-19T15:48:35.585Z,5.53
2018-08-19T15:51:08.016Z,5.67
2018-08-19T15:53:35.304Z,5.80
2018-08-19T15:56:02.605Z,4.80
2018-08-19T15:58:29.897Z,5.50
2018-08-19T16:00:57.202Z,6.07
2018-08-19T16:03:24.504Z,5.13
2018-08-19T16:05:51.820Z,5.50
2018-08-19T16:08:19.125Z,5.87
2018-08-19T16:10:46.420Z,5.50
2018-08-19T16:13:13.753Z,5.93
2018-08-19T16:15:41.081Z,5.47
2018-08-19T16:18:08.635Z,4.90
2018-08-19T16:20:35.996Z,5.10
2018-08-19T16:23:03.287Z,5.37
2018-08-19T16:25:30.659Z,5.33
2018-08-19T16:27:57.928Z,5.60
2018-08-19T16:30:25.259Z,5.67
2018-08-19T16:32:52.559Z,5.17
2018-08-19T16:35:20.208Z,5.40
2018-08-19T16:37:47.494Z,4.90
2018-08-19T16:40:14.796Z,6.37
2018-08-19T16:42:42.396Z,5.60
2018-08-19T16:45:10.828Z,5.30
2018-08-19T16:47:38.125Z,5.47
2018-08-19T16:50:06.713Z,6.03
2018-08-19T16:52:33.998Z,6.53
2018-08-19T16:55:01.295Z,4.80
2018-08-19T16:57:28.601Z,6.10
2018-08-19T16:59:55.875Z,5.47
2018-08-19T17:02:23.173Z,6.07
2018-08-19T17:04:50.478Z,5.90
2018-08-19T17:07:17.794Z,5.53
2018-08-19T17:09:45.126Z,6.27
2018-08-19T17:12:12.376Z,5.87
2018-08-19T17:14:39.699Z,5.50
2018-08-19T17:17:07.296Z,5.40
2018-08-19T17:19:34.699Z,6.53
2018-08-19T17:22:04.655Z,6.27
2018-08-19T17:24:32.448Z,6.33
2018-08-19T17:27:05.083Z,6.20
2018-08-19T17:29:32.412Z,6.37
2018-08-19T17:31:59.710Z,6.20
2018-08-19T17:34:27.075Z,6.13
2018-08-19T17:36:54.358Z,6.10
2018-08-19T17:39:23.232Z,7.00
2018-08-19T17:41:51.623Z,6.40
2018-08-19T17:44:19.222Z,6.20
2018-08-19T17:46:46.522Z,6.30
2018-08-19T17:49:19.321Z,6.03
2018-08-19T17:51:46.652Z,6.50
2018-08-19T17:54:22.247Z,6.70
2018-08-19T17:56:49.780Z,6.00
2018-08-19T17:59:17.181Z,6.63
2018-08-19T18:01:44.396Z,6.00
2018-08-19T18:04:11.733Z,6.27
2018-08-19T18:06:39.086Z,6.33
2018-08-19T18:09:07.905Z,7.60
2018-08-19T18:11:35.215Z,7.10
2018-08-19T18:14:02.527Z,7.13
2018-08-19T18:16:29.831Z,7.70
2018-08-19T18:18:58.972Z,7.57
2018-08-19T18:21:26.378Z,7.10
2018-08-19T18:23:54.360Z,7.80
2018-08-19T18:26:21.714Z,9.07
2018-08-19T18:28:49.058Z,8.10
2018-08-19T18:31:18.141Z,7.07
2018-08-19T18:33:51.169Z,8.07
2018-08-19T18:36:20.030Z,8.33
2018-08-19T18:38:48.150Z,8.50
2018-08-19T18:41:21.360Z,7.17
2018-08-19T18:43:50.854Z,8.30
2018-08-19T18:46:18.548Z,7.57
2018-08-19T18:48:45.989Z,7.63
2018-08-19T18:51:13.293Z,8.40
2018-08-19T18:53:40.622Z,8.47
2018-08-19T18:56:07.913Z,8.80
2018-08-19T18:58:35.291Z,8.00
2018-08-19T19:01:02.689Z,8.57
2018-08-19T19:03:30.186Z,8.70
2018-08-19T19:05:57.667Z,8.80
2018-08-19T19:08:25.034Z,8.70
2018-08-19T19:10:59.834Z,8.70
2018-08-19T19:13:29.722Z,8.33
2018-08-19T19:16:02.025Z,8.23
2018-08-19T19:18:29.962Z,8.90
2018-08-19T19:21:03.757Z,10.30
2018-08-19T19:23:35.339Z,8.60
2018-08-19T19:26:04.518Z,8.50
2018-08-19T19:28:37.399Z,7.17
2018-08-19T19:31:10.285Z,7.77
2018-08-19T19:33:38.080Z,9.17
2018-08-19T19:36:11.018Z,8.50
2018-08-19T19:38:46.317Z,7.77
2018-08-19T19:41:13.931Z,8.27
2018-08-19T19:43:42.067Z,10.47
2018-08-19T19:46:09.711Z,8.90
2018-08-19T19:48:37.198Z,9.40
2018-08-19T19:51:04.790Z,7.87
2018-08-19T19:53:32.214Z,7.57
2018-08-19T19:56:08.949Z,8.13
2018-08-19T19:58:36.492Z,8.70
2018-08-19T20:01:04.164Z,8.30
2018-08-19T20:03:38.673Z,7.23
2018-08-19T20:06:06.152Z,9.30
2018-08-19T20:08:34.126Z,8.37
2018-08-19T20:11:01.559Z,8.47
2018-08-19T20:13:33.472Z,8.43
2018-08-19T20:16:02.987Z,8.70
2018-08-19T20:18:30.598Z,8.37
2018-08-19T20:21:02.007Z,8.50
2018-08-19T20:23:30.240Z,8.90
2018-08-19T20:25:57.707Z,8.47
2018-08-19T20:28:25.050Z,8.77
2018-08-19T20:30:52.542Z,9.07
2018-08-19T20:33:25.789Z,8.10
2018-08-19T20:35:54.594Z,8.70
2018-08-19T20:38:22.675Z,8.77
2018-08-19T20:40:50.155Z,8.90
2018-08-19T20:43:21.211Z,8.83
2018-08-19T20:45:49.441Z,7.97
2018-08-19T20:48:17.180Z,8.43
2018-08-19T20:50:44.668Z,8.73
2018-08-19T20:53:12.115Z,8.77
2018-08-19T20:55:39.585Z,8.17
2018-08-19T20:58:06.994Z,10.53
2018-08-19T21:00:34.581Z,8.47
2018-08-19T21:03:02.066Z,8.50
2018-08-19T21:05:29.408Z,8.77
2018-08-19T21:08:04.679Z,8.40
2018-08-19T21:10:32.382Z,9.87
2018-08-19T21:13:00.172Z,8.57
2018-08-19T21:15:35.710Z,9.40
2018-08-19T21:18:03.138Z,9.43
2018-08-19T21:20:30.631Z,9.10
2018-08-19T21:22:58.013Z,8.30
2018-08-19T21:25:25.965Z,8.20
2018-08-19T21:27:53.310Z,8.33
2018-08-19T21:40:06.506Z,9.00
2018-08-19T21:42:42.190Z,9.27
2018-08-19T21:45:10.599Z,10.20
2018-08-19T21:47:39.549Z,9.20
2018-08-19T21:50:06.921Z,8.80
2018-08-19T21:52:34.313Z,9.70
2018-08-19T21:55:02.451Z,9.07
2018-08-19T21:57:33.794Z,10.43
2018-08-19T22:00:05.728Z,10.40
2018-08-19T22:02:38.698Z,10.73
2018-08-19T22:05:06.199Z,9.10
2018-08-19T22:07:33.517Z,10.93
2018-08-19T22:10:00.890Z,9.13
2018-08-19T22:12:30.094Z,9.50
2018-08-19T22:14:57.424Z,9.30
2018-08-19T22:17:25.711Z,9.30
2018-08-19T22:19:53.116Z,10.10
2018-08-19T22:22:20.415Z,9.10
2018-08-19T22:24:47.866Z,9.77
2018-08-19T22:27:17.609Z,9.17
2018-08-19T22:29:45.536Z,9.90
2018-08-19T22:32:17.421Z,9.67
2018-08-19T22:34:44.788Z,9.57
2018-08-19T22:37:20.340Z,9.20
2018-08-19T22:39:48.516Z,8.23
2018-08-19T22:42:15.882Z,9.13
2018-08-19T22:44:43.253Z,9.20
2018-08-19T22:47:10.689Z,9.90
2018-08-19T22:49:37.994Z,9.50
2018-08-19T22:52:11.821Z,8.93
2018-08-19T22:54:39.167Z,8.93
2018-08-19T22:57:06.540Z,9.10
2018-08-19T22:59:34.216Z,8.23
2018-08-19T23:02:01.619Z,8.20
2018-08-19T23:04:29.554Z,8.60
2018-08-19T23:06:58.603Z,9.77
2018-08-19T23:09:25.953Z,9.40
2018-08-19T23:11:53.921Z,10.17
2018-08-19T23:14:26.914Z,10.00
2018-08-19T23:16:54.290Z,10.17
2018-08-19T23:19:21.981Z,10.30
2018-08-19T23:21:50.134Z,10.30
2018-08-19T23:24:17.504Z,10.33
2018-08-19T23:26:44.855Z,10.47
2018-08-19T23:29:12.201Z,10.03
2018-08-19T23:31:39.507Z,10.47
2018-08-19T23:34:07.468Z,11.17
2018-08-19T23:36:35.166Z,11.37
2018-08-19T23:39:02.682Z,10.57
2018-08-19T23:41:30.078Z,10.97
2018-08-19T23:43:57.478Z,9.70
2018-08-19T23:46:25.003Z,11.10
2018-08-19T23:48:52.894Z,10.27
2018-08-19T23:51:32.014Z,9.93
2018-08-19T23:54:00.592Z,10.07
2018-08-19T23:56:28.303Z,11.27
2018-08-19T23:58:56.008Z,11.00
